KSBD/SBD METAR and TAF weather

Enter ICAO airport designator
Station Type Date Time Source
KSBD METAR 2020/08/11 18:55 UTC NOAA

KSBD 111855Z 00000KT 7SM SKC 33/04 A2993


Station Type Date Time Source
KSBD Decoded METAR 2020/08/11 18:55 UTC NOAA

Norton Air Force Base / San Bern, CA, United States (KSBD) 34-06N 117-14W
Aug 11, 2020 - 02:55 PM EDT / 2020.08.11 1855 UTC
Wind: Calm:0
Visibility: 7 mile(s):0
Sky conditions: clear
Temperature: 91 F (33 C)
Dew Point: 39 F (4 C)
Relative Humidity: 16%
Pressure (altimeter): 29.93 in. Hg (1013 hPa)
ob: KSBD 111855Z 00000KT 7SM SKC 33/04 A2993
cycle: 19

Station Type Date Time Source
KSBD TAF 2020/08/11 18:30 UTC NOAA

TAF KSBD 111728Z 1118/1218 VRB04KT P6SM SKC
FM112000 25012KT P6SM SKC
FM120330 VRB04KT P6SM SKC
FM121700 27008KT P6SM SKC

Example: see airport list